Time;durP1;ratioP1;P1;durP2;ratioP2;P2;SDS_P1;SDS_P2;PMS_P1;PMS_P2;Temp;Humidity;BMP_temperature;BMP_pressure;BME280_temperature;BME280_humidity;BME280_pressure;Samples;Min_cycle;Max_cycle;Signal;HPM_P1;HPM_P2
2021/06/22 00:01:39;;;;;;;15.55;9.70;;;15.00;81.90;;;;;;5047805;28;20380;-76
2021/06/22 00:04:05;;;;;;;13.30;8.13;;;15.00;82.00;;;;;;5063940;28;20071;-77
2021/06/22 00:06:31;;;;;;;14.50;8.43;;;15.00;81.60;;;;;;5064771;28;20029;-75
2021/06/22 00:08:56;;;;;;;12.60;7.90;;;14.90;81.20;;;;;;5047526;28;20028;-76
2021/06/22 00:11:22;;;;;;;18.50;8.65;;;14.90;81.40;;;;;;5058292;28;20379;-76
2021/06/22 00:13:48;;;;;;;18.77;8.00;;;14.90;81.00;;;;;;5063850;28;20029;-76
2021/06/22 00:16:14;;;;;;;14.20;7.60;;;14.90;81.10;;;;;;5059751;28;20063;-77
2021/06/22 00:18:39;;;;;;;14.18;7.93;;;14.90;80.60;;;;;;5060395;28;20108;-75
2021/06/22 00:21:05;;;;;;;14.93;7.75;;;15.00;80.70;;;;;;5062617;28;20127;-76
2021/06/22 00:23:30;;;;;;;14.60;8.10;;;15.00;80.50;;;;;;5059407;28;20047;-75
2021/06/22 00:25:57;;;;;;;15.90;8.18;;;14.80;80.40;;;;;;5061403;28;20037;-76
2021/06/22 00:28:23;;;;;;;18.50;8.52;;;14.80;80.30;;;;;;5064105;28;20071;-75
2021/06/22 00:30:48;;;;;;;16.08;9.23;;;14.80;80.60;;;;;;5066410;28;20466;-75
2021/06/22 00:33:14;;;;;;;17.55;10.25;;;14.80;80.60;;;;;;5062046;28;20043;-75
2021/06/22 00:35:40;;;;;;;18.13;10.18;;;14.80;80.70;;;;;;5043865;28;20028;-76
2021/06/22 00:38:05;;;;;;;14.57;10.07;;;14.70;81.00;;;;;;5065012;28;20464;-77
2021/06/22 00:40:31;;;;;;;21.23;10.98;;;14.70;80.80;;;;;;5064430;28;20127;-76
2021/06/22 00:42:57;;;;;;;15.80;9.38;;;14.70;81.00;;;;;;5062108;28;20044;-75
2021/06/22 00:45:28;;;;;;;13.30;8.68;;;14.70;81.30;;;;;;5061094;28;20060;-75
2021/06/22 00:47:55;;;;;;;18.98;8.70;;;14.70;80.70;;;;;;5047119;28;20044;-76
2021/06/22 00:50:21;;;;;;;13.77;7.80;;;14.60;80.80;;;;;;5058643;28;20037;-75
2021/06/22 00:52:47;;;;;;;9.80;6.53;;;14.60;81.10;;;;;;5065710;28;20098;-74
2021/06/22 00:55:13;;;;;;;10.88;6.97;;;14.60;81.00;;;;;;5060150;28;20041;-75
2021/06/22 00:57:40;;;;;;;12.48;6.57;;;14.60;81.10;;;;;;5045107;28;20448;-74
2021/06/22 01:00:08;;;;;;;11.43;7.22;;;14.60;81.20;;;;;;5072148;28;20475;-75
2021/06/22 01:02:34;;;;;;;16.65;7.55;;;14.60;81.40;;;;;;5070732;28;20052;-74
2021/06/22 01:05:00;;;;;;;12.13;7.38;;;14.60;81.10;;;;;;5074835;28;20021;-75
2021/06/22 01:07:26;;;;;;;12.60;7.47;;;14.60;81.40;;;;;;5071048;28;20509;-74
2021/06/22 01:09:52;;;;;;;13.43;8.00;;;14.60;81.50;;;;;;5070406;28;20044;-80
2021/06/22 01:12:17;;;;;;;14.25;8.23;;;14.60;81.40;;;;;;5042389;28;20071;-76
2021/06/22 01:14:44;;;;;;;15.77;7.82;;;14.60;81.70;;;;;;5066621;28;20048;-74
2021/06/22 01:17:10;;;;;;;12.93;7.65;;;14.50;81.70;;;;;;5064303;28;20539;-74
2021/06/22 01:19:37;;;;;;;12.35;8.10;;;14.60;81.80;;;;;;5063109;28;20066;-73
2021/06/22 01:22:04;;;;;;;15.75;7.82;;;14.60;81.70;;;;;;5047917;28;20360;-75
2021/06/22 01:24:30;;;;;;;15.60;8.13;;;14.60;81.70;;;;;;5061013;28;20111;-73
2021/06/22 01:27:00;;;;;;;14.43;8.00;;;14.60;81.70;;;;;;5066765;28;20531;-73
2021/06/22 01:29:27;;;;;;;14.38;7.65;;;14.60;82.00;;;;;;5064546;28;20074;-73
2021/06/22 01:31:55;;;;;;;12.10;7.75;;;14.50;82.00;;;;;;5065039;28;20055;-74
2021/06/22 01:34:30;;;;;;;12.43;7.63;;;14.40;82.20;;;;;;5044568;28;20044;-74
2021/06/22 01:36:58;;;;;;;13.18;7.32;;;14.40;82.40;;;;;;5067812;28;20028;-73
2021/06/22 01:39:23;;;;;;;12.38;7.57;;;14.40;82.10;;;;;;5069200;28;20025;-73
2021/06/22 01:41:49;;;;;;;12.75;7.93;;;14.40;82.00;;;;;;5069216;28;20025;-74
2021/06/22 01:44:15;;;;;;;11.68;7.63;;;14.30;82.20;;;;;;5055593;28;20128;-73
2021/06/22 01:46:41;;;;;;;14.35;7.60;;;14.30;82.30;;;;;;5063539;28;20037;-74
2021/06/22 01:49:07;;;;;;;15.23;7.85;;;14.30;82.30;;;;;;5067711;28;20028;-74
2021/06/22 01:51:33;;;;;;;13.43;8.20;;;14.30;82.20;;;;;;5066003;28;20041;-73
2021/06/22 01:54:00;;;;;;;14.60;8.35;;;14.30;82.30;;;;;;5061202;28;20138;-73
2021/06/22 01:56:27;;;;;;;13.88;7.93;;;14.30;82.30;;;;;;5045116;28;20041;-74
2021/06/22 01:58:53;;;;;;;11.60;7.65;;;14.20;82.20;;;;;;5046579;28;20049;-73
2021/06/22 02:01:19;;;;;;;14.85;7.82;;;14.20;82.30;;;;;;5069169;28;20064;-73
2021/06/22 02:03:46;;;;;;;15.02;8.20;;;14.10;82.60;;;;;;5051571;28;20028;-73
2021/06/22 02:06:12;;;;;;;14.63;8.20;;;14.10;82.40;;;;;;5064506;28;20098;-73
2021/06/22 02:08:38;;;;;;;16.75;8.65;;;14.10;82.60;;;;;;5064274;28;20074;-77
2021/06/22 02:11:04;;;;;;;15.75;8.90;;;14.10;82.40;;;;;;5044926;28;20053;-73
2021/06/22 02:13:30;;;;;;;13.50;8.25;;;14.20;82.10;;;;;;5063579;28;20045;-73
2021/06/22 02:15:56;;;;;;;12.82;8.15;;;14.20;81.80;;;;;;5062049;28;20543;-74
2021/06/22 02:18:22;;;;;;;11.93;8.57;;;14.10;82.20;;;;;;5062543;28;20471;-77
2021/06/22 02:20:48;;;;;;;15.32;8.63;;;14.10;82.00;;;;;;5067431;28;20036;-73
2021/06/22 02:23:14;;;;;;;14.55;9.55;;;14.10;82.30;;;;;;5066963;28;20036;-74
2021/06/22 02:25:40;;;;;;;13.85;8.93;;;14.10;82.10;;;;;;5067276;28;20032;-74
2021/06/22 02:28:08;;;;;;;12.98;8.48;;;14.10;82.10;;;;;;5060621;28;20041;-75
2021/06/22 02:30:36;;;;;;;13.40;8.05;;;14.10;82.20;;;;;;5067508;28;20037;-76
2021/06/22 02:33:02;;;;;;;15.10;9.05;;;14.10;82.20;;;;;;5063119;28;20120;-74
2021/06/22 02:35:28;;;;;;;15.07;9.73;;;14.10;82.10;;;;;;5067808;28;20146;-76
2021/06/22 02:37:54;;;;;;;14.07;8.15;;;14.10;81.90;;;;;;5064795;28;20040;-78
2021/06/22 02:40:20;;;;;;;18.27;9.82;;;14.10;81.80;;;;;;5064401;28;20048;-74
2021/06/22 02:42:47;;;;;;;17.48;9.50;;;14.10;82.10;;;;;;5067690;28;20046;-78
2021/06/22 02:45:14;;;;;;;15.63;9.57;;;14.10;81.90;;;;;;5066636;28;20040;-74
2021/06/22 02:47:41;;;;;;;15.75;9.18;;;14.10;81.90;;;;;;5048086;28;20036;-74
2021/06/22 02:50:07;;;;;;;16.92;9.25;;;14.10;81.90;;;;;;5064007;28;20115;-78
2021/06/22 02:52:33;;;;;;;16.20;9.80;;;14.10;81.70;;;;;;5065105;28;20120;-73
2021/06/22 02:54:58;;;;;;;20.80;10.32;;;14.00;81.70;;;;;;5059861;28;20127;-74
2021/06/22 02:57:24;;;;;;;19.23;11.40;;;14.10;81.80;;;;;;5048051;28;20070;-73
2021/06/22 02:59:50;;;;;;;18.80;10.80;;;13.90;81.70;;;;;;5068793;28;20032;-73
2021/06/22 03:02:15;;;;;;;17.85;10.05;;;14.00;81.90;;;;;;5063703;28;20041;-73
2021/06/22 03:04:41;;;;;;;22.50;11.02;;;14.00;81.50;;;;;;5053796;28;20024;-74
2021/06/22 03:07:07;;;;;;;21.33;10.98;;;14.00;81.70;;;;;;5062356;28;20049;-73
2021/06/22 03:09:33;;;;;;;18.77;10.40;;;13.90;81.60;;;;;;5060062;28;20063;-72
2021/06/22 03:11:59;;;;;;;19.60;10.50;;;14.00;81.90;;;;;;5055578;28;20037;-78
2021/06/22 03:14:26;;;;;;;16.85;9.77;;;13.90;81.90;;;;;;5063822;28;20033;-73
2021/06/22 03:16:52;;;;;;;17.48;10.50;;;13.90;81.90;;;;;;5044256;28;20040;-73
2021/06/22 03:19:18;;;;;;;17.45;10.10;;;13.90;81.90;;;;;;5046912;28;20032;-74
2021/06/22 03:21:44;;;;;;;18.50;9.65;;;13.90;82.00;;;;;;5068627;28;20185;-73
2021/06/22 03:24:11;;;;;;;16.73;10.23;;;13.90;82.10;;;;;;5066772;28;20036;-74
2021/06/22 03:26:38;;;;;;;17.70;11.95;;;13.90;82.30;;;;;;5061279;28;20037;-73
2021/06/22 03:29:03;;;;;;;16.00;10.88;;;13.80;81.90;;;;;;5046034;28;20174;-73
2021/06/22 03:31:29;;;;;;;16.85;11.68;;;13.80;82.20;;;;;;5061982;28;20527;-73
2021/06/22 03:33:55;;;;;;;19.13;11.80;;;13.80;82.30;;;;;;5064578;28;20423;-73
2021/06/22 03:36:21;;;;;;;17.85;11.65;;;13.70;82.80;;;;;;5061763;28;20041;-73
2021/06/22 03:38:46;;;;;;;20.42;11.48;;;13.70;82.60;;;;;;5064855;28;20120;-73
2021/06/22 03:41:12;;;;;;;17.23;10.55;;;13.70;83.00;;;;;;5061897;28;20039;-73
2021/06/22 03:43:38;;;;;;;18.50;10.45;;;13.70;83.00;;;;;;5063036;28;20113;-73
2021/06/22 03:46:07;;;;;;;17.25;9.93;;;13.70;83.10;;;;;;5060189;28;20439;-73
2021/06/22 03:48:33;;;;;;;18.33;10.32;;;13.60;82.90;;;;;;5060226;28;20118;-74
2021/06/22 03:50:59;;;;;;;14.07;8.90;;;13.60;83.00;;;;;;5063996;28;20036;-73
2021/06/22 03:53:24;;;;;;;14.73;8.95;;;13.60;83.10;;;;;;5040454;28;20040;-75
2021/06/22 03:55:50;;;;;;;16.92;9.63;;;13.60;83.20;;;;;;5062722;28;20463;-74
2021/06/22 03:58:16;;;;;;;17.55;10.05;;;13.60;83.30;;;;;;5064357;28;20103;-78
2021/06/22 04:00:41;;;;;;;18.10;9.20;;;13.60;84.00;;;;;;5064179;28;20036;-75
2021/06/22 04:03:08;;;;;;;18.08;9.13;;;13.50;84.10;;;;;;5064551;28;20124;-74
2021/06/22 04:05:33;;;;;;;17.48;10.15;;;13.60;84.30;;;;;;5066768;28;20039;-75
2021/06/22 04:08:00;;;;;;;15.63;9.73;;;13.50;84.70;;;;;;5067321;28;20028;-74
2021/06/22 04:10:28;;;;;;;16.33;9.80;;;13.50;84.60;;;;;;5045322;28;20035;-74
2021/06/22 04:12:53;;;;;;;16.63;10.20;;;13.50;84.40;;;;;;5059748;28;20438;-74
2021/06/22 04:15:19;;;;;;;20.15;9.38;;;13.50;84.70;;;;;;5062570;28;20071;-78
2021/06/22 04:17:45;;;;;;;19.17;9.98;;;13.40;84.50;;;;;;5064527;28;20027;-77
2021/06/22 04:20:12;;;;;;;19.15;10.85;;;13.50;84.90;;;;;;5059855;28;20033;-75
2021/06/22 04:22:38;;;;;;;19.75;10.00;;;13.50;84.70;;;;;;5062250;28;20383;-77
2021/06/22 04:25:04;;;;;;;15.68;9.40;;;13.50;84.60;;;;;;5063106;28;20025;-74
2021/06/22 04:27:30;;;;;;;15.73;9.70;;;13.50;84.60;;;;;;5062421;28;20105;-73
2021/06/22 04:29:55;;;;;;;15.48;9.63;;;13.60;84.50;;;;;;5066239;28;20064;-74
2021/06/22 04:32:21;;;;;;;18.60;9.65;;;13.60;84.50;;;;;;5059517;28;20136;-74
2021/06/22 04:34:47;;;;;;;20.08;10.52;;;13.60;84.50;;;;;;5066842;28;20079;-74
2021/06/22 04:37:13;;;;;;;16.90;10.55;;;13.70;84.60;;;;;;5066996;28;20029;-73
2021/06/22 04:39:39;;;;;;;21.20;11.30;;;13.60;84.50;;;;;;5070544;28;20033;-73
2021/06/22 04:42:05;;;;;;;16.48;9.80;;;13.60;84.30;;;;;;5049775;28;20043;-75
2021/06/22 04:44:31;;;;;;;19.40;10.70;;;13.60;84.60;;;;;;5068075;28;20036;-74
2021/06/22 04:46:56;;;;;;;21.42;11.43;;;13.60;84.40;;;;;;5069234;28;20037;-74
2021/06/22 04:49:22;;;;;;;17.38;10.23;;;13.60;84.80;;;;;;5065875;28;20028;-78
2021/06/22 04:51:48;;;;;;;18.65;11.07;;;13.60;84.40;;;;;;5061508;28;20028;-76
2021/06/22 04:54:14;;;;;;;24.48;12.93;;;13.70;84.40;;;;;;5066125;28;20119;-74
2021/06/22 04:56:40;;;;;;;20.60;11.43;;;13.60;84.50;;;;;;5066494;28;20405;-73
2021/06/22 04:59:06;;;;;;;21.30;11.90;;;13.60;84.50;;;;;;5065709;28;20036;-73
2021/06/22 05:01:31;;;;;;;15.82;10.45;;;13.70;84.50;;;;;;5065701;28;20115;-76
2021/06/22 05:03:57;;;;;;;23.55;11.88;;;13.70;84.70;;;;;;5066114;28;20032;-74
2021/06/22 05:06:23;;;;;;;18.77;11.20;;;13.70;84.40;;;;;;5046587;28;20079;-79
2021/06/22 05:08:49;;;;;;;18.67;11.82;;;13.80;84.40;;;;;;5068112;28;20490;-76
2021/06/22 05:11:14;;;;;;;16.38;10.75;;;13.80;84.30;;;;;;5066375;28;20869;-73
2021/06/22 05:13:41;;;;;;;20.13;11.65;;;13.80;84.30;;;;;;5040022;28;20032;-74
2021/06/22 05:16:07;;;;;;;17.42;11.18;;;13.80;84.30;;;;;;5066470;28;20061;-77
2021/06/22 05:18:34;;;;;;;23.45;11.80;;;13.90;84.50;;;;;;5065544;28;20099;-74
2021/06/22 05:21:00;;;;;;;21.67;12.15;;;13.90;84.50;;;;;;5062272;28;20041;-80
2021/06/22 05:23:25;;;;;;;16.23;11.35;;;13.90;84.50;;;;;;5063994;28;20039;-74
2021/06/22 05:25:51;;;;;;;17.88;10.73;;;13.80;84.80;;;;;;5065941;28;20044;-75
2021/06/22 05:28:17;;;;;;;19.85;12.23;;;13.80;84.80;;;;;;5068626;28;20033;-74
2021/06/22 05:30:43;;;;;;;16.77;11.20;;;13.80;84.40;;;;;;5062390;28;20455;-75
2021/06/22 05:33:08;;;;;;;21.10;10.95;;;13.90;84.70;;;;;;5068387;28;20044;-76
2021/06/22 05:35:34;;;;;;;22.80;12.07;;;13.90;84.70;;;;;;5069451;28;20044;-70
2021/06/22 05:38:00;;;;;;;21.35;11.20;;;13.80;84.80;;;;;;5044059;28;20041;-70
2021/06/22 05:40:26;;;;;;;18.63;10.75;;;13.80;84.30;;;;;;5063746;28;20588;-70
2021/06/22 05:42:52;;;;;;;20.10;11.35;;;13.80;84.40;;;;;;5048370;28;20025;-72
2021/06/22 05:45:18;;;;;;;16.58;9.95;;;13.80;84.80;;;;;;5066903;28;20135;-70
2021/06/22 05:47:44;;;;;;;15.18;10.27;;;13.90;84.50;;;;;;5065973;28;20119;-71
2021/06/22 05:50:11;;;;;;;21.02;11.68;;;13.80;84.90;;;;;;5060729;28;20135;-71
2021/06/22 05:52:37;;;;;;;28.40;13.27;;;13.90;85.10;;;;;;5048537;28;20120;-71
2021/06/22 05:55:04;;;;;;;40.22;14.60;;;13.70;84.80;;;;;;5064035;28;20035;-71
2021/06/22 05:57:30;;;;;;;42.70;19.27;;;13.80;84.90;;;;;;5067938;28;20021;-71
2021/06/22 05:59:55;;;;;;;44.03;18.17;;;13.70;85.00;;;;;;5066370;28;20063;-71
2021/06/22 06:02:21;;;;;;;46.28;19.80;;;13.70;85.30;;;;;;5068602;28;20126;-71
2021/06/22 06:04:47;;;;;;;48.55;19.95;;;13.70;85.10;;;;;;5065789;28;20436;-71
2021/06/22 06:07:12;;;;;;;46.00;19.73;;;13.70;85.50;;;;;;5062422;28;20043;-72
2021/06/22 06:09:38;;;;;;;43.22;18.38;;;13.70;84.90;;;;;;5063884;28;20062;-71
2021/06/22 06:12:04;;;;;;;42.63;18.33;;;13.70;85.50;;;;;;5062695;28;20463;-71
2021/06/22 06:14:30;;;;;;;39.10;18.05;;;13.70;85.50;;;;;;5063953;28;20472;-71
2021/06/22 06:16:56;;;;;;;36.03;15.63;;;13.70;85.40;;;;;;5061441;28;20044;-71
2021/06/22 06:19:22;;;;;;;33.72;14.85;;;13.70;85.20;;;;;;5065311;28;20032;-73
2021/06/22 06:21:48;;;;;;;34.45;13.93;;;13.70;85.00;;;;;;5038061;28;20922;-71
2021/06/22 06:24:14;;;;;;;33.35;13.98;;;13.70;85.50;;;;;;5047891;28;20102;-72
2021/06/22 06:29:32;;;;;;;33.78;15.13;;;13.60;84.60;;;;;;5066353;28;20074;-71
2021/06/22 06:31:58;;;;;;;29.88;13.95;;;13.60;84.80;;;;;;5066321;28;20037;-71
2021/06/22 06:34:23;;;;;;;37.10;14.77;;;13.70;85.20;;;;;;5064930;28;20029;-71
2021/06/22 06:36:49;;;;;;;35.83;14.77;;;13.70;85.10;;;;;;5064178;28;20789;-72
2021/06/22 06:39:15;;;;;;;35.13;13.60;;;13.70;85.20;;;;;;5062341;28;20037;-73
2021/06/22 06:41:40;;;;;;;37.30;14.50;;;13.60;85.20;;;;;;5065964;28;20037;-73
2021/06/22 06:44:06;;;;;;;32.35;14.93;;;13.70;85.00;;;;;;5061415;28;20029;-74
2021/06/22 06:46:32;;;;;;;31.80;14.60;;;13.70;85.00;;;;;;5043689;28;20100;-74
2021/06/22 06:48:57;;;;;;;31.20;14.27;;;13.70;85.30;;;;;;5064176;28;20041;-76
2021/06/22 06:51:23;;;;;;;32.13;14.90;;;13.70;85.30;;;;;;5053067;28;20542;-73
2021/06/22 06:53:48;;;;;;;34.63;15.05;;;13.80;84.80;;;;;;5056388;28;20053;-74
2021/06/22 06:56:14;;;;;;;34.13;15.27;;;13.70;85.00;;;;;;5061033;28;20476;-75
2021/06/22 06:58:40;;;;;;;42.60;18.48;;;13.80;85.50;;;;;;5063320;28;20040;-73
2021/06/22 07:01:06;;;;;;;33.67;16.33;;;13.80;85.40;;;;;;5061457;28;20043;-74
2021/06/22 07:03:33;;;;;;;41.60;18.60;;;13.80;85.30;;;;;;5047658;28;20032;-74
2021/06/22 07:05:59;;;;;;;43.28;18.38;;;13.90;84.80;;;;;;5062146;28;20132;-73
2021/06/22 07:08:24;;;;;;;48.22;18.77;;;13.90;85.10;;;;;;5065101;28;20131;-74
2021/06/22 07:10:50;;;;;;;46.80;19.30;;;13.90;85.40;;;;;;5046050;28;20045;-75
2021/06/22 07:13:17;;;;;;;45.33;19.30;;;13.90;85.70;;;;;;5057822;28;20504;-75
2021/06/22 07:15:43;;;;;;;44.33;21.23;;;13.90;86.20;;;;;;5047750;28;20411;-74
2021/06/22 07:18:09;;;;;;;49.53;21.80;;;13.80;86.20;;;;;;5066034;28;20041;-73
2021/06/22 07:20:35;;;;;;;57.78;22.15;;;13.80;86.00;;;;;;5064863;28;20035;-74
2021/06/22 07:23:01;;;;;;;54.58;21.58;;;13.80;86.20;;;;;;5061115;28;20033;-73
2021/06/22 07:25:26;;;;;;;56.38;23.40;;;13.80;85.90;;;;;;5057934;28;20100;-73
2021/06/22 07:27:53;;;;;;;59.83;24.88;;;13.80;86.10;;;;;;5060752;28;20463;-73
2021/06/22 07:30:23;;;;;;;63.95;23.60;;;13.70;86.70;;;;;;5058919;28;20032;-74
2021/06/22 07:32:49;;;;;;;62.45;24.67;;;13.80;86.60;;;;;;5062971;28;20119;-73
2021/06/22 07:35:15;;;;;;;58.25;24.20;;;13.70;86.40;;;;;;5059629;28;20043;-73
2021/06/22 07:37:41;;;;;;;65.18;24.67;;;13.60;86.50;;;;;;5046293;28;20016;-74
2021/06/22 07:40:09;;;;;;;62.33;24.45;;;13.60;87.30;;;;;;5060520;28;20033;-73
2021/06/22 07:42:35;;;;;;;65.47;24.55;;;13.60;87.80;;;;;;5061875;28;20036;-76
2021/06/22 07:45:00;;;;;;;55.22;22.48;;;13.60;87.70;;;;;;5063474;28;20036;-74
2021/06/22 07:47:26;;;;;;;56.83;22.80;;;13.60;87.40;;;;;;5062318;28;20064;-73
2021/06/22 07:49:52;;;;;;;61.30;24.25;;;13.50;88.00;;;;;;5057882;28;20402;-74
2021/06/22 07:52:18;;;;;;;57.03;23.23;;;13.60;87.50;;;;;;5043971;28;20123;-73
2021/06/22 07:54:44;;;;;;;58.78;23.35;;;13.60;87.80;;;;;;5061325;28;20112;-73
2021/06/22 07:57:10;;;;;;;52.28;22.73;;;13.60;87.50;;;;;;5059288;28;20585;-73
2021/06/22 07:59:36;;;;;;;53.53;21.92;;;13.60;87.90;;;;;;5063192;28;20041;-75
2021/06/22 08:02:02;;;;;;;50.65;19.20;;;13.70;87.90;;;;;;5063066;28;20047;-74
2021/06/22 08:04:27;;;;;;;45.50;18.65;;;13.70;87.10;;;;;;5063851;28;20078;-73
2021/06/22 08:06:54;;;;;;;45.63;18.65;;;13.60;87.20;;;;;;5062794;28;20522;-75
2021/06/22 08:09:20;;;;;;;40.95;17.67;;;13.50;87.40;;;;;;5063732;28;20041;-73
2021/06/22 08:11:46;;;;;;;33.33;16.30;;;13.50;87.80;;;;;;5064662;28;20487;-73
2021/06/22 08:14:12;;;;;;;37.47;17.45;;;13.50;87.40;;;;;;5061877;28;20040;-76
2021/06/22 08:16:37;;;;;;;34.35;16.15;;;13.50;87.90;;;;;;5064279;28;20048;-83
2021/06/22 08:19:03;;;;;;;37.83;16.52;;;13.40;87.60;;;;;;5062661;28;20056;-74
2021/06/22 08:21:29;;;;;;;43.20;18.05;;;13.50;88.30;;;;;;5064897;28;20052;-80
2021/06/22 08:23:55;;;;;;;39.58;17.90;;;13.50;88.30;;;;;;5061628;28;20528;-77
2021/06/22 08:26:21;;;;;;;46.53;19.73;;;13.50;88.50;;;;;;5063513;28;20407;-73
2021/06/22 08:28:47;;;;;;;45.92;20.70;;;13.50;88.30;;;;;;5065647;28;20056;-74
2021/06/22 08:31:12;;;;;;;42.95;19.45;;;13.50;88.70;;;;;;5060090;28;20554;-73
2021/06/22 08:33:38;;;;;;;43.67;19.23;;;13.50;88.70;;;;;;5064423;28;20098;-74
2021/06/22 08:36:05;;;;;;;39.45;19.10;;;13.50;88.60;;;;;;5038621;28;20025;-73
2021/06/22 08:38:31;;;;;;;37.17;18.90;;;13.50;88.40;;;;;;5045114;28;20033;-74
2021/06/22 08:40:57;;;;;;;41.88;19.48;;;13.50;88.30;;;;;;5061320;28;20024;-74
2021/06/22 08:43:22;;;;;;;41.72;20.50;;;13.60;88.40;;;;;;5062349;28;20029;-73
2021/06/22 08:45:48;;;;;;;40.38;20.52;;;13.50;88.60;;;;;;5062343;28;20025;-77
2021/06/22 08:48:15;;;;;;;34.55;18.33;;;13.60;88.50;;;;;;5065854;28;20123;-73
2021/06/22 08:50:45;;;;;;;38.22;18.35;;;13.60;88.40;;;;;;5066833;28;20380;-73
2021/06/22 08:53:13;;;;;;;34.85;16.90;;;13.60;88.20;;;;;;5066716;28;20060;-76
2021/06/22 08:55:40;;;;;;;30.48;16.25;;;13.60;87.50;;;;;;5066197;28;20060;-74
2021/06/22 08:58:11;;;;;;;27.98;15.02;;;13.60;87.60;;;;;;5047629;28;20484;-79
2021/06/22 09:00:39;;;;;;;23.83;14.18;;;13.60;87.80;;;;;;5047129;28;20032;-73
2021/06/22 09:03:14;;;;;;;22.80;14.90;;;13.70;87.30;;;;;;5042413;28;20068;-80
2021/06/22 09:05:43;;;;;;;25.58;14.52;;;13.70;87.30;;;;;;5057815;28;20031;-73
2021/06/22 09:08:29;;;;;;;31.08;15.93;;;13.90;87.40;;;;;;5063662;28;20082;-73
2021/06/22 09:11:09;;;;;;;23.95;14.75;;;13.90;86.90;;;;;;5065399;28;20082;-77
2021/06/22 09:13:37;;;;;;;23.80;14.77;;;13.90;86.70;;;;;;5064456;28;20036;-74
2021/06/22 09:16:06;;;;;;;28.50;16.83;;;14.10;86.50;;;;;;5062666;28;20120;-74
2021/06/22 09:18:36;;;;;;;30.40;15.50;;;14.10;86.70;;;;;;5058704;28;20033;-77
2021/06/22 09:21:04;;;;;;;31.50;18.25;;;14.00;85.70;;;;;;5062447;28;20040;-73
2021/06/22 09:23:38;;;;;;;36.15;19.13;;;14.10;86.40;;;;;;5051165;28;20040;-79
2021/06/22 09:26:13;;;;;;;48.53;22.52;;;14.10;86.30;;;;;;5069809;28;20024;-80
2021/06/22 09:28:39;;;;;;;;;;;14.20;86.70;;;;;;5066734;28;20033;-75
2021/06/22 09:31:06;;;;;;;69.80;27.40;;;14.30;86.80;;;;;;5051135;28;19969;-73
2021/06/22 09:33:48;;;;;;;75.45;32.03;;;14.30;86.30;;;;;;5068453;28;20040;-74
2021/06/22 09:36:24;;;;;;;76.15;31.83;;;14.30;86.30;;;;;;5068504;28;20025;-79
2021/06/22 09:38:58;;;;;;;84.15;33.67;;;14.20;86.50;;;;;;5065778;28;20048;-74
2021/06/22 09:41:32;;;;;;;85.28;33.03;;;14.30;86.50;;;;;;5044961;28;20439;-75
2021/06/22 09:44:01;;;;;;;76.20;32.10;;;14.50;86.80;;;;;;5064565;28;20032;-74
2021/06/22 09:46:31;;;;;;;63.10;28.88;;;14.50;86.50;;;;;;5063878;28;20032;-74
2021/06/22 09:48:58;;;;;;;43.35;22.55;;;14.50;86.40;;;;;;5067587;28;20033;-83
2021/06/22 09:51:37;;;;;;;37.50;20.13;;;14.40;85.90;;;;;;5044169;28;20368;-79
2021/06/22 09:54:12;;;;;;;34.90;20.55;;;14.40;86.00;;;;;;5060895;28;20028;-75
2021/06/22 09:56:37;;;;;;;33.00;20.27;;;14.50;86.60;;;;;;5067739;28;20040;-74
2021/06/22 09:59:07;;;;;;;28.98;19.27;;;14.50;86.40;;;;;;5037325;28;20536;-75
2021/06/22 10:01:37;;;;;;;28.83;20.02;;;14.50;86.10;;;;;;5063507;28;20459;-76
2021/06/22 10:04:17;;;;;;;29.52;21.67;;;14.60;86.10;;;;;;5065969;28;20032;-75
2021/06/22 10:06:49;;;;;;;29.67;21.33;;;14.60;86.30;;;;;;5063670;28;20040;-73
2021/06/22 10:09:22;;;;;;;31.77;22.25;;;14.70;86.20;;;;;;5064603;28;20041;-73
2021/06/22 10:11:56;;;;;;;29.70;21.30;;;14.70;85.10;;;;;;5069586;28;20487;-73
2021/06/22 10:14:46;;;;;;;30.23;21.60;;;14.60;85.40;;;;;;5059478;28;20091;-74
2021/06/22 10:17:20;;;;;;;30.95;23.92;;;14.60;86.40;;;;;;5055170;28;20049;-79
2021/06/22 10:19:48;;;;;;;30.80;21.98;;;14.80;86.30;;;;;;5062571;28;21116;-76
2021/06/22 10:22:16;;;;;;;28.88;23.05;;;14.80;86.60;;;;;;5065527;28;20049;-79
2021/06/22 10:24:46;;;;;;;34.20;24.48;;;15.00;86.60;;;;;;5069316;28;20111;-74
2021/06/22 10:27:16;;;;;;;37.20;24.65;;;15.10;86.30;;;;;;5060119;28;20025;-73
2021/06/22 10:29:43;;;;;;;35.95;25.42;;;15.10;84.80;;;;;;5043396;28;20028;-74
2021/06/22 10:32:10;;;;;;;35.15;26.33;;;15.10;85.80;;;;;;5062622;28;20165;-75
2021/06/22 10:34:36;;;;;;;32.35;25.73;;;15.00;85.90;;;;;;5065432;28;20111;-75
2021/06/22 10:37:34;;;;;;;36.72;30.10;;;15.00;86.40;;;;;;5063168;28;20044;-74
2021/06/22 10:40:11;;;;;;;38.90;30.25;;;15.00;86.10;;;;;;5045964;28;20115;-75
2021/06/22 10:42:52;;;;;;;39.65;31.38;;;14.90;86.30;;;;;;5066596;28;20036;-73
2021/06/22 10:45:19;;;;;;;42.33;34.60;;;14.90;86.80;;;;;;5064094;28;20032;-73
2021/06/22 10:47:46;;;;;;;41.47;33.45;;;15.00;86.90;;;;;;5066085;28;20494;-74
2021/06/22 10:50:12;;;;;;;45.10;35.80;;;14.90;85.70;;;;;;5064469;28;20052;-73
2021/06/22 10:52:45;;;;;;;46.03;35.60;;;14.90;86.10;;;;;;5062883;28;20037;-73
2021/06/22 10:55:27;;;;;;;46.75;38.10;;;15.00;85.50;;;;;;5066256;28;20124;-74
2021/06/22 11:00:28;;;;;;;;;;;14.90;85.70;;;;;;5066712;28;20361;-74
2021/06/22 11:03:02;;;;;;;43.03;36.17;;;14.70;85.90;;;;;;5064293;28;19912;-73
2021/06/22 11:05:29;;;;;;;43.50;35.60;;;14.70;85.90;;;;;;5064012;28;20028;-73
2021/06/22 11:08:12;;;;;;;46.72;38.05;;;14.80;85.70;;;;;;5063514;28;20520;-73
2021/06/22 11:10:40;;;;;;;47.35;36.33;;;14.90;86.20;;;;;;5061028;28;20059;-80
2021/06/22 11:13:06;;;;;;;42.45;35.92;;;14.80;85.50;;;;;;5065146;28;20033;-76
2021/06/22 11:15:46;;;;;;;48.90;37.08;;;14.80;85.40;;;;;;5042494;28;20174;-73
2021/06/22 11:18:17;;;;;;;45.17;35.65;;;14.90;84.90;;;;;;5044929;28;20029;-73
2021/06/22 11:21:05;;;;;;;43.88;35.13;;;14.90;83.00;;;;;;5041886;28;20029;-73
2021/06/22 11:23:51;;;;;;;41.92;35.58;;;15.10;83.00;;;;;;5043991;28;20049;-76
2021/06/22 11:26:17;;;;;;;40.65;33.65;;;15.00;82.30;;;;;;5044505;28;20048;-81
2021/06/22 11:28:55;;;;;;;39.83;34.63;;;15.10;82.60;;;;;;5045721;28;20029;-75
2021/06/22 11:31:43;;;;;;;38.75;32.50;;;15.10;82.60;;;;;;5039141;28;20048;-83
2021/06/22 11:34:10;;;;;;;43.72;35.38;;;15.10;81.80;;;;;;5050937;28;20057;-73
2021/06/22 11:36:43;;;;;;;42.22;34.05;;;15.10;83.10;;;;;;5043634;28;20040;-73
2021/06/22 11:39:11;;;;;;;38.85;32.75;;;15.10;82.50;;;;;;5040196;28;20029;-73
2021/06/22 11:41:38;;;;;;;38.72;34.53;;;15.10;81.30;;;;;;5042764;28;20538;-72
2021/06/22 11:44:06;;;;;;;41.38;32.83;;;14.90;81.90;;;;;;5039674;28;20124;-73
2021/06/22 11:46:33;;;;;;;42.20;35.08;;;15.10;82.00;;;;;;5040748;28;20072;-72
2021/06/22 11:49:00;;;;;;;45.80;35.78;;;15.00;82.30;;;;;;5043480;28;20480;-72
2021/06/22 11:51:47;;;;;;;39.42;33.47;;;15.10;82.80;;;;;;5041137;28;20488;-73
2021/06/22 11:54:55;;;;;;;38.13;32.88;;;15.10;82.10;;;;;;5043671;28;20043;-75
2021/06/22 11:57:26;;;;;;;38.72;31.35;;;15.10;82.00;;;;;;5043610;28;20033;-72
2021/06/22 11:59:54;;;;;;;34.83;27.42;;;15.10;81.60;;;;;;5040493;28;20073;-73
2021/06/22 12:02:20;;;;;;;34.85;30.17;;;15.00;81.30;;;;;;5041537;28;20033;-73
2021/06/22 12:04:47;;;;;;;32.47;28.27;;;15.00;81.50;;;;;;5044396;28;20037;-73
2021/06/22 12:07:13;;;;;;;38.17;29.15;;;15.10;80.80;;;;;;5040873;28;20029;-73
2021/06/22 12:09:40;;;;;;;34.15;26.60;;;15.30;81.20;;;;;;5043369;28;20475;-72
2021/06/22 12:12:07;;;;;;;31.67;26.10;;;15.40;79.60;;;;;;5040806;28;20037;-75
2021/06/22 12:14:32;;;;;;;30.20;25.90;;;15.50;79.00;;;;;;5041249;28;20619;-75
2021/06/22 12:16:59;;;;;;;30.80;24.33;;;15.60;79.20;;;;;;5055818;28;20391;-73
2021/06/22 12:19:25;;;;;;;28.17;23.15;;;15.70;79.10;;;;;;5065576;28;20044;-73
2021/06/22 12:21:53;;;;;;;26.05;22.73;;;15.60;76.90;;;;;;5057287;28;20502;-74
2021/06/22 12:24:20;;;;;;;29.98;22.35;;;15.80;77.80;;;;;;5063821;28;20111;-75
2021/06/22 12:26:51;;;;;;;26.65;22.13;;;15.80;75.70;;;;;;5063819;28;20284;-73
2021/06/22 12:29:23;;;;;;;27.33;22.63;;;15.60;75.60;;;;;;5069086;28;20040;-73
2021/06/22 12:31:58;;;;;;;29.83;22.25;;;15.50;76.70;;;;;;5049061;28;20885;-73
2021/06/22 12:34:26;;;;;;;27.70;23.33;;;15.60;76.10;;;;;;5062535;28;20033;-73
2021/06/22 12:36:52;;;;;;;27.42;21.80;;;15.90;77.30;;;;;;5045267;28;20111;-79
2021/06/22 12:39:20;;;;;;;28.77;21.73;;;15.80;74.80;;;;;;5060793;28;20028;-74